sensor_id;sensor_type;location;lat;lon;timestamp;temperature;humidity
17236;DHT22;8734;59.272;17.780;2022-09-09T00:00:13;10.60;99.90
17236;DHT22;8734;59.272;17.780;2022-09-09T00:02:47;10.70;99.90
17236;DHT22;8734;59.272;17.780;2022-09-09T00:05:25;10.80;99.90
17236;DHT22;8734;59.272;17.780;2022-09-09T00:07:59;10.80;99.90
17236;DHT22;8734;59.272;17.780;2022-09-09T00:10:33;10.80;99.90
17236;DHT22;8734;59.272;17.780;2022-09-09T00:13:10;10.80;99.90
17236;DHT22;8734;59.272;17.780;2022-09-09T00:15:54;10.90;99.90
17236;DHT22;8734;59.272;17.780;2022-09-09T00:18:30;10.90;99.90
17236;DHT22;8734;59.272;17.780;2022-09-09T00:21:06;10.90;99.90
17236;DHT22;8734;59.272;17.780;2022-09-09T00:23:38;10.90;99.90
17236;DHT22;8734;59.272;17.780;2022-09-09T00:26:10;10.90;99.90
17236;DHT22;8734;59.272;17.780;2022-09-09T00:28:45;10.90;99.90
17236;DHT22;8734;59.272;17.780;2022-09-09T00:31:18;11.00;99.90
17236;DHT22;8734;59.272;17.780;2022-09-09T00:33:49;11.10;99.90
17236;DHT22;8734;59.272;17.780;2022-09-09T00:36:22;11.20;99.90
17236;DHT22;8734;59.272;17.780;2022-09-09T00:38:57;11.10;99.90
17236;DHT22;8734;59.272;17.780;2022-09-09T00:41:33;11.10;99.90
17236;DHT22;8734;59.272;17.780;2022-09-09T00:44:17;11.10;99.90
17236;DHT22;8734;59.272;17.780;2022-09-09T00:46:59;11.30;99.90
17236;DHT22;8734;59.272;17.780;2022-09-09T00:49:43;11.40;99.90
17236;DHT22;8734;59.272;17.780;2022-09-09T00:52:26;11.40;99.90
17236;DHT22;8734;59.272;17.780;2022-09-09T00:55:05;11.50;99.90
17236;DHT22;8734;59.272;17.780;2022-09-09T00:57:36;11.60;99.90
17236;DHT22;8734;59.272;17.780;2022-09-09T01:00:21;11.70;99.90
17236;DHT22;8734;59.272;17.780;2022-09-09T01:02:56;11.70;99.90
17236;DHT22;8734;59.272;17.780;2022-09-09T01:05:36;11.80;99.90
17236;DHT22;8734;59.272;17.780;2022-09-09T01:08:19;11.90;99.90
17236;DHT22;8734;59.272;17.780;2022-09-09T01:10:51;11.90;99.90
17236;DHT22;8734;59.272;17.780;2022-09-09T01:13:24;11.90;99.90
17236;DHT22;8734;59.272;17.780;2022-09-09T01:15:53;11.90;99.90
17236;DHT22;8734;59.272;17.780;2022-09-09T01:18:30;12.00;99.90
17236;DHT22;8734;59.272;17.780;2022-09-09T01:21:07;12.00;99.90
17236;DHT22;8734;59.272;17.780;2022-09-09T01:24:04;12.00;99.90
17236;DHT22;8734;59.272;17.780;2022-09-09T01:26:35;12.00;99.90
17236;DHT22;8734;59.272;17.780;2022-09-09T01:29:07;12.00;99.90
17236;DHT22;8734;59.272;17.780;2022-09-09T01:31:38;12.10;99.90
17236;DHT22;8734;59.272;17.780;2022-09-09T01:34:11;12.10;99.90
17236;DHT22;8734;59.272;17.780;2022-09-09T01:36:43;12.10;99.90
17236;DHT22;8734;59.272;17.780;2022-09-09T01:39:14;12.10;99.90
17236;DHT22;8734;59.272;17.780;2022-09-09T01:41:44;12.10;99.90
17236;DHT22;8734;59.272;17.780;2022-09-09T01:44:13;12.10;99.90
17236;DHT22;8734;59.272;17.780;2022-09-09T01:46:41;12.10;99.90
17236;DHT22;8734;59.272;17.780;2022-09-09T01:49:09;12.10;99.90
17236;DHT22;8734;59.272;17.780;2022-09-09T01:51:39;12.10;99.90
17236;DHT22;8734;59.272;17.780;2022-09-09T01:54:09;12.20;99.90
17236;DHT22;8734;59.272;17.780;2022-09-09T01:56:47;12.20;99.90
17236;DHT22;8734;59.272;17.780;2022-09-09T01:59:27;12.30;99.90
17236;DHT22;8734;59.272;17.780;2022-09-09T02:02:09;12.30;99.90
17236;DHT22;8734;59.272;17.780;2022-09-09T02:04:41;12.30;99.90
17236;DHT22;8734;59.272;17.780;2022-09-09T02:07:21;12.30;99.90
17236;DHT22;8734;59.272;17.780;2022-09-09T02:09:57;12.40;99.90
17236;DHT22;8734;59.272;17.780;2022-09-09T02:12:29;12.40;99.90
17236;DHT22;8734;59.272;17.780;2022-09-09T02:15:02;12.40;99.90
17236;DHT22;8734;59.272;17.780;2022-09-09T02:17:34;12.40;99.90
17236;DHT22;8734;59.272;17.780;2022-09-09T02:20:06;12.40;99.90
17236;DHT22;8734;59.272;17.780;2022-09-09T02:22:37;12.30;99.90
17236;DHT22;8734;59.272;17.780;2022-09-09T02:25:10;12.40;99.90
17236;DHT22;8734;59.272;17.780;2022-09-09T02:27:42;12.40;99.90
17236;DHT22;8734;59.272;17.780;2022-09-09T02:30:12;12.40;99.90
17236;DHT22;8734;59.272;17.780;2022-09-09T02:32:43;12.40;99.90
17236;DHT22;8734;59.272;17.780;2022-09-09T02:35:15;12.40;99.90
17236;DHT22;8734;59.272;17.780;2022-09-09T02:37:45;12.40;99.90
17236;DHT22;8734;59.272;17.780;2022-09-09T02:40:14;12.40;99.90
17236;DHT22;8734;59.272;17.780;2022-09-09T02:42:46;12.40;99.90
17236;DHT22;8734;59.272;17.780;2022-09-09T02:45:19;12.40;99.90
17236;DHT22;8734;59.272;17.780;2022-09-09T02:47:53;12.40;99.90
17236;DHT22;8734;59.272;17.780;2022-09-09T02:50:31;12.40;99.90
17236;DHT22;8734;59.272;17.780;2022-09-09T02:53:06;12.40;99.90
17236;DHT22;8734;59.272;17.780;2022-09-09T02:55:39;12.40;99.90
17236;DHT22;8734;59.272;17.780;2022-09-09T02:58:12;12.50;99.90
17236;DHT22;8734;59.272;17.780;2022-09-09T03:00:46;12.50;99.90
17236;DHT22;8734;59.272;17.780;2022-09-09T03:03:15;12.40;99.90
17236;DHT22;8734;59.272;17.780;2022-09-09T03:05:45;12.40;99.90
17236;DHT22;8734;59.272;17.780;2022-09-09T03:08:14;12.40;99.90
17236;DHT22;8734;59.272;17.780;2022-09-09T03:10:42;12.40;99.90
17236;DHT22;8734;59.272;17.780;2022-09-09T03:13:12;12.30;99.90
17236;DHT22;8734;59.272;17.780;2022-09-09T03:15:42;12.20;99.90
17236;DHT22;8734;59.272;17.780;2022-09-09T03:18:10;12.20;99.90
17236;DHT22;8734;59.272;17.780;2022-09-09T03:20:38;12.20;99.90
17236;DHT22;8734;59.272;17.780;2022-09-09T03:23:08;12.10;99.90
17236;DHT22;8734;59.272;17.780;2022-09-09T03:25:46;12.00;99.90
17236;DHT22;8734;59.272;17.780;2022-09-09T03:28:16;12.00;99.90
17236;DHT22;8734;59.272;17.780;2022-09-09T03:30:45;11.90;99.90
17236;DHT22;8734;59.272;17.780;2022-09-09T03:33:13;11.90;99.90
17236;DHT22;8734;59.272;17.780;2022-09-09T03:35:45;11.90;99.90
17236;DHT22;8734;59.272;17.780;2022-09-09T03:38:15;11.90;99.90
17236;DHT22;8734;59.272;17.780;2022-09-09T03:40:49;11.90;99.90
17236;DHT22;8734;59.272;17.780;2022-09-09T03:43:19;11.80;99.90
17236;DHT22;8734;59.272;17.780;2022-09-09T03:45:48;11.80;99.90
17236;DHT22;8734;59.272;17.780;2022-09-09T03:48:17;11.80;99.90
17236;DHT22;8734;59.272;17.780;2022-09-09T03:50:47;11.90;99.90
17236;DHT22;8734;59.272;17.780;2022-09-09T03:53:17;11.90;99.90
17236;DHT22;8734;59.272;17.780;2022-09-09T03:55:47;11.90;99.90
17236;DHT22;8734;59.272;17.780;2022-09-09T03:58:18;11.90;99.90
17236;DHT22;8734;59.272;17.780;2022-09-09T04:00:53;11.90;99.90
17236;DHT22;8734;59.272;17.780;2022-09-09T04:03:22;11.90;99.90
17236;DHT22;8734;59.272;17.780;2022-09-09T04:05:55;11.90;99.90
17236;DHT22;8734;59.272;17.780;2022-09-09T04:08:24;11.90;99.90
17236;DHT22;8734;59.272;17.780;2022-09-09T04:10:53;11.90;99.90
17236;DHT22;8734;59.272;17.780;2022-09-09T04:13:26;11.90;99.90
17236;DHT22;8734;59.272;17.780;2022-09-09T04:15:56;11.90;99.90
17236;DHT22;8734;59.272;17.780;2022-09-09T04:18:26;11.90;99.90
17236;DHT22;8734;59.272;17.780;2022-09-09T04:20:55;11.90;99.90
17236;DHT22;8734;59.272;17.780;2022-09-09T04:23:25;11.90;99.90
17236;DHT22;8734;59.272;17.780;2022-09-09T04:25:56;11.90;99.90
17236;DHT22;8734;59.272;17.780;2022-09-09T04:28:29;12.00;99.90
17236;DHT22;8734;59.272;17.780;2022-09-09T04:31:04;12.00;99.90
17236;DHT22;8734;59.272;17.780;2022-09-09T04:33:33;12.00;99.90
17236;DHT22;8734;59.272;17.780;2022-09-09T04:36:06;12.00;99.90
17236;DHT22;8734;59.272;17.780;2022-09-09T04:38:35;12.10;99.90
17236;DHT22;8734;59.272;17.780;2022-09-09T04:41:04;12.10;99.90
17236;DHT22;8734;59.272;17.780;2022-09-09T04:43:33;12.10;99.90
17236;DHT22;8734;59.272;17.780;2022-09-09T04:46:02;12.20;99.90
17236;DHT22;8734;59.272;17.780;2022-09-09T04:48:30;12.20;99.90
17236;DHT22;8734;59.272;17.780;2022-09-09T04:51:00;12.20;99.90
17236;DHT22;8734;59.272;17.780;2022-09-09T04:53:29;12.20;99.90
17236;DHT22;8734;59.272;17.780;2022-09-09T04:56:04;12.30;99.90
17236;DHT22;8734;59.272;17.780;2022-09-09T04:58:36;12.30;99.90
17236;DHT22;8734;59.272;17.780;2022-09-09T05:01:05;12.30;99.90
17236;DHT22;8734;59.272;17.780;2022-09-09T05:03:35;12.30;99.90
17236;DHT22;8734;59.272;17.780;2022-09-09T05:06:05;12.40;99.90
17236;DHT22;8734;59.272;17.780;2022-09-09T05:08:36;12.40;99.90
17236;DHT22;8734;59.272;17.780;2022-09-09T05:11:18;12.40;99.90
17236;DHT22;8734;59.272;17.780;2022-09-09T05:13:49;12.40;99.90
17236;DHT22;8734;59.272;17.780;2022-09-09T05:16:18;12.50;99.90
17236;DHT22;8734;59.272;17.780;2022-09-09T05:18:47;12.50;99.90
17236;DHT22;8734;59.272;17.780;2022-09-09T05:21:17;12.40;99.90
17236;DHT22;8734;59.272;17.780;2022-09-09T05:23:46;12.40;99.90
17236;DHT22;8734;59.272;17.780;2022-09-09T05:26:15;12.50;99.90
17236;DHT22;8734;59.272;17.780;2022-09-09T05:28:44;12.50;99.90
17236;DHT22;8734;59.272;17.780;2022-09-09T05:31:16;12.60;99.90
17236;DHT22;8734;59.272;17.780;2022-09-09T05:33:47;12.70;99.90
17236;DHT22;8734;59.272;17.780;2022-09-09T05:36:18;12.70;99.90
17236;DHT22;8734;59.272;17.780;2022-09-09T05:38:47;12.70;99.90
17236;DHT22;8734;59.272;17.780;2022-09-09T05:41:16;12.70;99.90
17236;DHT22;8734;59.272;17.780;2022-09-09T05:43:45;12.70;99.90
17236;DHT22;8734;59.272;17.780;2022-09-09T05:46:17;12.70;99.90
17236;DHT22;8734;59.272;17.780;2022-09-09T05:48:47;12.70;99.90
17236;DHT22;8734;59.272;17.780;2022-09-09T05:51:20;12.70;99.90
17236;DHT22;8734;59.272;17.780;2022-09-09T05:53:49;12.70;99.90
17236;DHT22;8734;59.272;17.780;2022-09-09T05:56:19;12.70;99.90
17236;DHT22;8734;59.272;17.780;2022-09-09T05:58:49;12.70;99.90
17236;DHT22;8734;59.272;17.780;2022-09-09T06:01:20;12.60;99.90
17236;DHT22;8734;59.272;17.780;2022-09-09T06:03:50;12.60;99.90
17236;DHT22;8734;59.272;17.780;2022-09-09T06:06:20;12.60;99.90
17236;DHT22;8734;59.272;17.780;2022-09-09T06:08:50;12.70;99.90
17236;DHT22;8734;59.272;17.780;2022-09-09T06:11:21;12.70;99.90
17236;DHT22;8734;59.272;17.780;2022-09-09T06:13:50;12.80;99.90
17236;DHT22;8734;59.272;17.780;2022-09-09T06:16:23;12.80;99.90
17236;DHT22;8734;59.272;17.780;2022-09-09T06:18:52;12.80;99.90
17236;DHT22;8734;59.272;17.780;2022-09-09T06:21:23;12.80;99.90
17236;DHT22;8734;59.272;17.780;2022-09-09T06:23:51;12.80;99.90
17236;DHT22;8734;59.272;17.780;2022-09-09T06:26:27;12.90;99.90
17236;DHT22;8734;59.272;17.780;2022-09-09T06:28:58;12.90;99.90
17236;DHT22;8734;59.272;17.780;2022-09-09T06:31:30;12.90;99.90
17236;DHT22;8734;59.272;17.780;2022-09-09T06:33:59;12.90;99.90
17236;DHT22;8734;59.272;17.780;2022-09-09T06:36:29;12.90;99.90
17236;DHT22;8734;59.272;17.780;2022-09-09T06:38:58;13.00;99.90
17236;DHT22;8734;59.272;17.780;2022-09-09T06:41:28;13.00;99.90
17236;DHT22;8734;59.272;17.780;2022-09-09T06:43:57;13.10;99.90
17236;DHT22;8734;59.272;17.780;2022-09-09T06:46:28;13.30;99.90
17236;DHT22;8734;59.272;17.780;2022-09-09T06:48:57;13.40;99.90
17236;DHT22;8734;59.272;17.780;2022-09-09T06:51:28;13.50;99.90
17236;DHT22;8734;59.272;17.780;2022-09-09T06:53:57;13.50;99.90
17236;DHT22;8734;59.272;17.780;2022-09-09T06:56:28;13.60;99.90
17236;DHT22;8734;59.272;17.780;2022-09-09T06:58:58;13.70;99.90
17236;DHT22;8734;59.272;17.780;2022-09-09T07:01:30;13.80;99.90
17236;DHT22;8734;59.272;17.780;2022-09-09T07:04:00;13.90;99.90
17236;DHT22;8734;59.272;17.780;2022-09-09T07:06:29;13.90;99.90
17236;DHT22;8734;59.272;17.780;2022-09-09T07:08:59;14.00;99.90
17236;DHT22;8734;59.272;17.780;2022-09-09T07:11:29;14.20;99.90
17236;DHT22;8734;59.272;17.780;2022-09-09T07:13:59;14.30;99.90
17236;DHT22;8734;59.272;17.780;2022-09-09T07:16:29;14.40;99.90
17236;DHT22;8734;59.272;17.780;2022-09-09T07:18:58;14.50;99.90
17236;DHT22;8734;59.272;17.780;2022-09-09T07:21:28;14.50;99.90
17236;DHT22;8734;59.272;17.780;2022-09-09T07:23:57;14.50;99.90
17236;DHT22;8734;59.272;17.780;2022-09-09T07:26:28;14.60;99.90
17236;DHT22;8734;59.272;17.780;2022-09-09T07:28:56;14.80;99.90
17236;DHT22;8734;59.272;17.780;2022-09-09T07:31:27;14.90;99.90
17236;DHT22;8734;59.272;17.780;2022-09-09T07:33:59;14.90;99.90
17236;DHT22;8734;59.272;17.780;2022-09-09T07:36:29;14.80;99.90
17236;DHT22;8734;59.272;17.780;2022-09-09T07:39:00;14.80;99.90
17236;DHT22;8734;59.272;17.780;2022-09-09T07:41:32;14.90;99.90
17236;DHT22;8734;59.272;17.780;2022-09-09T07:44:04;15.00;99.90
17236;DHT22;8734;59.272;17.780;2022-09-09T07:46:34;15.00;99.90
17236;DHT22;8734;59.272;17.780;2022-09-09T07:49:04;15.10;99.90
17236;DHT22;8734;59.272;17.780;2022-09-09T07:51:33;15.00;99.90
17236;DHT22;8734;59.272;17.780;2022-09-09T07:54:05;15.10;99.90
17236;DHT22;8734;59.272;17.780;2022-09-09T07:56:37;15.20;99.90
17236;DHT22;8734;59.272;17.780;2022-09-09T07:59:06;15.20;99.90
17236;DHT22;8734;59.272;17.780;2022-09-09T08:01:37;15.10;99.90
17236;DHT22;8734;59.272;17.780;2022-09-09T08:04:09;15.10;99.90
17236;DHT22;8734;59.272;17.780;2022-09-09T08:06:43;15.10;99.90
17236;DHT22;8734;59.272;17.780;2022-09-09T08:09:13;15.00;99.90
17236;DHT22;8734;59.272;17.780;2022-09-09T08:11:42;14.90;99.90
17236;DHT22;8734;59.272;17.780;2022-09-09T08:14:11;14.80;99.90
17236;DHT22;8734;59.272;17.780;2022-09-09T08:16:41;14.70;99.90
17236;DHT22;8734;59.272;17.780;2022-09-09T08:19:11;14.80;99.90
17236;DHT22;8734;59.272;17.780;2022-09-09T08:21:44;14.90;99.90
17236;DHT22;8734;59.272;17.780;2022-09-09T08:24:13;15.00;99.90
17236;DHT22;8734;59.272;17.780;2022-09-09T08:26:43;15.00;99.90
17236;DHT22;8734;59.272;17.780;2022-09-09T08:29:13;15.20;99.90
17236;DHT22;8734;59.272;17.780;2022-09-09T08:31:43;15.40;99.90
17236;DHT22;8734;59.272;17.780;2022-09-09T08:34:14;15.50;99.90
17236;DHT22;8734;59.272;17.780;2022-09-09T08:36:44;15.50;99.90
17236;DHT22;8734;59.272;17.780;2022-09-09T08:39:14;15.50;99.90
17236;DHT22;8734;59.272;17.780;2022-09-09T08:42:06;15.50;99.90
17236;DHT22;8734;59.272;17.780;2022-09-09T08:45:02;15.70;99.90
17236;DHT22;8734;59.272;17.780;2022-09-09T08:47:39;15.90;99.90
17236;DHT22;8734;59.272;17.780;2022-09-09T08:50:19;15.90;99.90
17236;DHT22;8734;59.272;17.780;2022-09-09T08:52:59;16.00;99.90
17236;DHT22;8734;59.272;17.780;2022-09-09T08:55:37;15.90;99.90
17236;DHT22;8734;59.272;17.780;2022-09-09T08:58:12;15.80;99.90
17236;DHT22;8734;59.272;17.780;2022-09-09T09:00:50;15.70;99.90
17236;DHT22;8734;59.272;17.780;2022-09-09T09:03:27;15.70;99.90
17236;DHT22;8734;59.272;17.780;2022-09-09T09:06:04;15.80;99.90
17236;DHT22;8734;59.272;17.780;2022-09-09T09:08:42;15.80;99.90
17236;DHT22;8734;59.272;17.780;2022-09-09T09:11:12;15.80;99.90
17236;DHT22;8734;59.272;17.780;2022-09-09T09:13:44;15.90;99.90
17236;DHT22;8734;59.272;17.780;2022-09-09T09:16:22;16.00;99.90
17236;DHT22;8734;59.272;17.780;2022-09-09T09:18:52;16.30;99.90
17236;DHT22;8734;59.272;17.780;2022-09-09T09:21:29;16.60;99.90
17236;DHT22;8734;59.272;17.780;2022-09-09T09:24:01;16.70;99.90
17236;DHT22;8734;59.272;17.780;2022-09-09T09:26:33;16.50;99.90
17236;DHT22;8734;59.272;17.780;2022-09-09T09:29:10;16.40;99.90
17236;DHT22;8734;59.272;17.780;2022-09-09T09:31:43;16.20;99.90
17236;DHT22;8734;59.272;17.780;2022-09-09T09:34:12;17.00;99.90
17236;DHT22;8734;59.272;17.780;2022-09-09T09:36:45;17.90;99.90
17236;DHT22;8734;59.272;17.780;2022-09-09T09:39:23;17.90;99.90
17236;DHT22;8734;59.272;17.780;2022-09-09T09:42:14;17.60;99.90
17236;DHT22;8734;59.272;17.780;2022-09-09T09:44:49;17.70;99.90
17236;DHT22;8734;59.272;17.780;2022-09-09T09:47:19;17.90;99.90
17236;DHT22;8734;59.272;17.780;2022-09-09T09:49:54;18.80;99.90
17236;DHT22;8734;59.272;17.780;2022-09-09T09:52:26;19.10;99.90
17236;DHT22;8734;59.272;17.780;2022-09-09T09:54:57;19.20;99.90
17236;DHT22;8734;59.272;17.780;2022-09-09T09:57:33;19.20;99.90
17236;DHT22;8734;59.272;17.780;2022-09-09T10:00:12;19.40;99.90
17236;DHT22;8734;59.272;17.780;2022-09-09T10:02:42;19.50;99.90
17236;DHT22;8734;59.272;17.780;2022-09-09T10:05:14;19.50;99.90
17236;DHT22;8734;59.272;17.780;2022-09-09T10:07:47;19.50;99.90
17236;DHT22;8734;59.272;17.780;2022-09-09T10:10:42;19.20;99.90
17236;DHT22;8734;59.272;17.780;2022-09-09T10:13:19;19.50;99.90
17236;DHT22;8734;59.272;17.780;2022-09-09T10:16:00;19.90;99.90
17236;DHT22;8734;59.272;17.780;2022-09-09T10:18:40;21.50;99.90
17236;DHT22;8734;59.272;17.780;2022-09-09T10:21:21;22.80;99.90
17236;DHT22;8734;59.272;17.780;2022-09-09T10:26:57;24.30;99.90
17236;DHT22;8734;59.272;17.780;2022-09-09T10:29:40;25.40;99.90
17236;DHT22;8734;59.272;17.780;2022-09-09T10:32:28;26.10;99.90
17236;DHT22;8734;59.272;17.780;2022-09-09T10:35:04;26.20;99.90
17236;DHT22;8734;59.272;17.780;2022-09-09T10:37:46;26.80;99.70
17236;DHT22;8734;59.272;17.780;2022-09-09T10:40:26;27.10;99.10
17236;DHT22;8734;59.272;17.780;2022-09-09T10:43:03;26.80;97.60
17236;DHT22;8734;59.272;17.780;2022-09-09T10:45:43;26.50;97.80
17236;DHT22;8734;59.272;17.780;2022-09-09T10:48:35;26.60;97.70
17236;DHT22;8734;59.272;17.780;2022-09-09T10:51:23;25.40;97.50
17236;DHT22;8734;59.272;17.780;2022-09-09T10:54:06;22.50;99.90
17236;DHT22;8734;59.272;17.780;2022-09-09T10:56:40;21.20;99.90
17236;DHT22;8734;59.272;17.780;2022-09-09T10:59:12;20.00;99.90
17236;DHT22;8734;59.272;17.780;2022-09-09T11:01:44;19.10;99.90
17236;DHT22;8734;59.272;17.780;2022-09-09T11:04:20;18.50;99.90
17236;DHT22;8734;59.272;17.780;2022-09-09T11:06:53;18.40;99.90
17236;DHT22;8734;59.272;17.780;2022-09-09T11:09:24;18.30;99.90
17236;DHT22;8734;59.272;17.780;2022-09-09T11:11:56;18.80;99.90
17236;DHT22;8734;59.272;17.780;2022-09-09T11:14:29;19.30;99.90
17236;DHT22;8734;59.272;17.780;2022-09-09T11:17:06;19.80;99.90
17236;DHT22;8734;59.272;17.780;2022-09-09T11:19:39;20.50;99.90
17236;DHT22;8734;59.272;17.780;2022-09-09T11:22:15;21.60;99.90
17236;DHT22;8734;59.272;17.780;2022-09-09T11:24:49;21.70;99.90
17236;DHT22;8734;59.272;17.780;2022-09-09T11:27:23;22.80;99.90
17236;DHT22;8734;59.272;17.780;2022-09-09T11:30:05;24.30;99.90
17236;DHT22;8734;59.272;17.780;2022-09-09T11:35:48;25.80;99.90
17236;DHT22;8734;59.272;17.780;2022-09-09T11:38:26;26.00;99.90
17236;DHT22;8734;59.272;17.780;2022-09-09T11:40:57;25.40;99.90
17236;DHT22;8734;59.272;17.780;2022-09-09T11:43:31;25.50;99.80
17236;DHT22;8734;59.272;17.780;2022-09-09T11:46:01;25.40;99.90
17236;DHT22;8734;59.272;17.780;2022-09-09T11:48:33;25.90;99.90
17236;DHT22;8734;59.272;17.780;2022-09-09T11:51:05;26.00;99.30
17236;DHT22;8734;59.272;17.780;2022-09-09T11:53:48;23.50;99.90
17236;DHT22;8734;59.272;17.780;2022-09-09T11:56:28;22.70;99.90
17236;DHT22;8734;59.272;17.780;2022-09-09T11:59:00;24.30;99.90
17236;DHT22;8734;59.272;17.780;2022-09-09T12:01:37;24.30;99.90
17236;DHT22;8734;59.272;17.780;2022-09-09T12:04:32;22.20;99.90
17236;DHT22;8734;59.272;17.780;2022-09-09T12:07:03;21.50;99.90
17236;DHT22;8734;59.272;17.780;2022-09-09T12:09:47;21.80;99.90
17236;DHT22;8734;59.272;17.780;2022-09-09T12:12:24;20.80;99.90
17236;DHT22;8734;59.272;17.780;2022-09-09T12:15:00;19.60;99.90
17236;DHT22;8734;59.272;17.780;2022-09-09T12:17:30;18.50;99.90
17236;DHT22;8734;59.272;17.780;2022-09-09T12:20:06;17.70;99.90
17236;DHT22;8734;59.272;17.780;2022-09-09T12:22:44;17.30;99.90
17236;DHT22;8734;59.272;17.780;2022-09-09T12:25:23;16.90;99.90
17236;DHT22;8734;59.272;17.780;2022-09-09T12:28:03;17.80;99.90
17236;DHT22;8734;59.272;17.780;2022-09-09T12:30:41;21.60;99.90
17236;DHT22;8734;59.272;17.780;2022-09-09T12:33:16;23.90;99.90
17236;DHT22;8734;59.272;17.780;2022-09-09T12:35:47;24.20;99.90
17236;DHT22;8734;59.272;17.780;2022-09-09T12:38:24;22.30;99.90
17236;DHT22;8734;59.272;17.780;2022-09-09T12:40:56;21.00;99.90
17236;DHT22;8734;59.272;17.780;2022-09-09T12:43:26;20.60;99.90
17236;DHT22;8734;59.272;17.780;2022-09-09T12:45:58;20.40;99.90
17236;DHT22;8734;59.272;17.780;2022-09-09T12:48:39;21.40;99.90
17236;DHT22;8734;59.272;17.780;2022-09-09T12:51:18;21.50;99.90
17236;DHT22;8734;59.272;17.780;2022-09-09T12:53:47;20.60;99.90
17236;DHT22;8734;59.272;17.780;2022-09-09T12:56:21;22.10;99.90
17236;DHT22;8734;59.272;17.780;2022-09-09T12:58:56;23.70;99.90
17236;DHT22;8734;59.272;17.780;2022-09-09T13:01:28;22.00;99.90
17236;DHT22;8734;59.272;17.780;2022-09-09T13:03:57;20.50;99.90
17236;DHT22;8734;59.272;17.780;2022-09-09T13:06:27;20.60;99.90
17236;DHT22;8734;59.272;17.780;2022-09-09T13:08:57;21.10;99.90
17236;DHT22;8734;59.272;17.780;2022-09-09T13:11:30;20.00;99.90
17236;DHT22;8734;59.272;17.780;2022-09-09T13:13:59;19.90;99.90
17236;DHT22;8734;59.272;17.780;2022-09-09T13:16:30;21.60;99.90
17236;DHT22;8734;59.272;17.780;2022-09-09T13:19:08;21.70;99.90
17236;DHT22;8734;59.272;17.780;2022-09-09T13:21:38;19.80;99.90
17236;DHT22;8734;59.272;17.780;2022-09-09T13:24:19;18.60;99.90
17236;DHT22;8734;59.272;17.780;2022-09-09T13:26:54;17.80;99.90
17236;DHT22;8734;59.272;17.780;2022-09-09T13:29:23;17.30;99.90
17236;DHT22;8734;59.272;17.780;2022-09-09T13:31:53;16.90;99.90
17236;DHT22;8734;59.272;17.780;2022-09-09T13:34:29;16.70;99.90
17236;DHT22;8734;59.272;17.780;2022-09-09T13:36:59;16.60;99.90
17236;DHT22;8734;59.272;17.780;2022-09-09T13:39:29;16.50;99.90
17236;DHT22;8734;59.272;17.780;2022-09-09T13:41:58;16.50;99.90
17236;DHT22;8734;59.272;17.780;2022-09-09T13:44:28;16.40;99.90
17236;DHT22;8734;59.272;17.780;2022-09-09T13:47:03;16.30;99.90
17236;DHT22;8734;59.272;17.780;2022-09-09T13:49:36;16.20;99.90
17236;DHT22;8734;59.272;17.780;2022-09-09T13:52:08;16.30;99.90
17236;DHT22;8734;59.272;17.780;2022-09-09T13:54:37;16.40;99.90
17236;DHT22;8734;59.272;17.780;2022-09-09T13:57:13;16.40;99.90
17236;DHT22;8734;59.272;17.780;2022-09-09T13:59:42;16.30;99.90
17236;DHT22;8734;59.272;17.780;2022-09-09T14:02:31;16.30;99.90
17236;DHT22;8734;59.272;17.780;2022-09-09T14:05:00;16.20;99.90
17236;DHT22;8734;59.272;17.780;2022-09-09T14:07:29;16.10;99.90
17236;DHT22;8734;59.272;17.780;2022-09-09T14:09:57;16.00;99.90
17236;DHT22;8734;59.272;17.780;2022-09-09T14:12:27;16.00;99.90
17236;DHT22;8734;59.272;17.780;2022-09-09T14:14:55;16.10;99.90
17236;DHT22;8734;59.272;17.780;2022-09-09T14:17:23;16.10;99.90
17236;DHT22;8734;59.272;17.780;2022-09-09T14:19:53;16.00;99.90
17236;DHT22;8734;59.272;17.780;2022-09-09T14:22:21;15.90;99.90
17236;DHT22;8734;59.272;17.780;2022-09-09T14:24:50;15.90;99.90
17236;DHT22;8734;59.272;17.780;2022-09-09T14:27:19;15.90;99.90
17236;DHT22;8734;59.272;17.780;2022-09-09T14:29:47;15.80;99.90
17236;DHT22;8734;59.272;17.780;2022-09-09T14:32:15;15.70;99.90
17236;DHT22;8734;59.272;17.780;2022-09-09T14:34:44;15.70;99.90
17236;DHT22;8734;59.272;17.780;2022-09-09T14:37:13;15.50;99.90
17236;DHT22;8734;59.272;17.780;2022-09-09T14:39:41;15.40;99.90
17236;DHT22;8734;59.272;17.780;2022-09-09T14:42:11;15.60;99.90
17236;DHT22;8734;59.272;17.780;2022-09-09T14:44:39;15.60;99.90
17236;DHT22;8734;59.272;17.780;2022-09-09T14:47:08;15.70;99.90
17236;DHT22;8734;59.272;17.780;2022-09-09T14:49:37;15.60;99.90
17236;DHT22;8734;59.272;17.780;2022-09-09T14:52:09;15.50;99.90
17236;DHT22;8734;59.272;17.780;2022-09-09T14:54:39;15.60;99.90
17236;DHT22;8734;59.272;17.780;2022-09-09T14:57:07;15.60;99.90
17236;DHT22;8734;59.272;17.780;2022-09-09T14:59:35;15.90;99.90
17236;DHT22;8734;59.272;17.780;2022-09-09T15:02:05;16.30;99.90
17236;DHT22;8734;59.272;17.780;2022-09-09T15:04:33;16.50;99.90
17236;DHT22;8734;59.272;17.780;2022-09-09T15:07:02;16.50;99.90
17236;DHT22;8734;59.272;17.780;2022-09-09T15:09:31;16.40;99.90
17236;DHT22;8734;59.272;17.780;2022-09-09T15:12:01;16.30;99.90
17236;DHT22;8734;59.272;17.780;2022-09-09T15:14:29;16.30;99.90
17236;DHT22;8734;59.272;17.780;2022-09-09T15:16:58;16.20;99.90
17236;DHT22;8734;59.272;17.780;2022-09-09T15:19:26;16.20;99.90
17236;DHT22;8734;59.272;17.780;2022-09-09T15:21:55;16.20;99.90
17236;DHT22;8734;59.272;17.780;2022-09-09T15:24:24;16.40;99.90
17236;DHT22;8734;59.272;17.780;2022-09-09T15:26:52;16.60;99.90
17236;DHT22;8734;59.272;17.780;2022-09-09T15:29:22;16.70;99.90
17236;DHT22;8734;59.272;17.780;2022-09-09T15:31:50;16.90;99.90
17236;DHT22;8734;59.272;17.780;2022-09-09T15:34:19;17.00;99.90
17236;DHT22;8734;59.272;17.780;2022-09-09T15:36:47;17.00;99.90
17236;DHT22;8734;59.272;17.780;2022-09-09T15:39:17;17.00;99.90
17236;DHT22;8734;59.272;17.780;2022-09-09T15:41:46;16.90;99.90
17236;DHT22;8734;59.272;17.780;2022-09-09T15:44:16;16.80;99.90
17236;DHT22;8734;59.272;17.780;2022-09-09T15:46:49;16.70;99.90
17236;DHT22;8734;59.272;17.780;2022-09-09T15:49:20;16.60;99.90
17236;DHT22;8734;59.272;17.780;2022-09-09T15:51:52;16.60;99.90
17236;DHT22;8734;59.272;17.780;2022-09-09T15:54:21;16.50;99.90
17236;DHT22;8734;59.272;17.780;2022-09-09T15:56:52;16.30;99.90
17236;DHT22;8734;59.272;17.780;2022-09-09T15:59:22;16.20;99.90
17236;DHT22;8734;59.272;17.780;2022-09-09T16:01:52;16.00;99.90
17236;DHT22;8734;59.272;17.780;2022-09-09T16:04:23;15.80;99.90
17236;DHT22;8734;59.272;17.780;2022-09-09T16:06:53;15.70;99.90
17236;DHT22;8734;59.272;17.780;2022-09-09T16:09:22;15.60;99.90